AUA2PM LOWW-LEPA
Flight info
| Callsign | AUA2PM |
|---|---|
| Flight time | N/A |
| Altitude | 40000 |
| Route | OSPEN DCT ABRUK DCT SETAL DCT DETSA/N0470F410 DCT PIDAD DCT TALEP DCT RARQU DCT BALEN UT250 RIXOT |
| Aircraft | B772/H-SDE2E3FGHIJ5LORVWXY/LB1D1 |
Departure
| Time | N/A |
|---|---|
| Airport | Vienna International Airport (LOWW) |
Arrival
| Time | 2026-05-04 15:28 |
|---|---|
| Airport | Palma de Mallorca Airport (LEPA) |
| Time | Latitude | Longitude | Altitude | Speed | Heading |
|---|---|---|---|---|---|
| 2026-05-04 14:34 | 42.54698 | 7.59996 | 41032 ft | 428 kts | 224° |
| 2026-05-04 14:35 | 42.52460 | 7.57334 | 41041 ft | 428 kts | 224° |
| 2026-05-04 14:35 | 42.47981 | 7.52012 | 41030 ft | 428 kts | 224° |
| 2026-05-04 14:36 | 42.43503 | 7.46702 | 41028 ft | 427 kts | 224° |
| 2026-05-04 14:36 | 42.39061 | 7.41445 | 41030 ft | 427 kts | 224° |
| 2026-05-04 14:37 | 42.34596 | 7.36171 | 41019 ft | 426 kts | 224° |
| 2026-05-04 14:37 | 42.30138 | 7.30914 | 41027 ft | 425 kts | 224° |
| 2026-05-04 14:38 | 42.25683 | 7.25672 | 41024 ft | 425 kts | 224° |
| 2026-05-04 14:38 | 42.21254 | 7.20471 | 41027 ft | 425 kts | 224° |
| 2026-05-04 14:39 | 42.16794 | 7.15242 | 41018 ft | 425 kts | 224° |
| 2026-05-04 14:39 | 42.12332 | 7.10022 | 41025 ft | 425 kts | 224° |
| 2026-05-04 14:40 | 42.05622 | 7.02188 | 41014 ft | 426 kts | 224° |
| 2026-05-04 14:40 | 42.01179 | 6.96997 | 41018 ft | 426 kts | 224° |
| 2026-05-04 14:41 | 41.96802 | 6.91654 | 41002 ft | 425 kts | 225° |
| 2026-05-04 14:42 | 41.88100 | 6.80925 | 41009 ft | 424 kts | 225° |
| 2026-05-04 14:42 | 41.83769 | 6.75628 | 41009 ft | 424 kts | 225° |
| 2026-05-04 14:43 | 41.79405 | 6.70306 | 41015 ft | 425 kts | 225° |
| 2026-05-04 14:43 | 41.75025 | 6.64977 | 40989 ft | 426 kts | 225° |
| 2026-05-04 14:44 | 41.70645 | 6.59659 | 40994 ft | 424 kts | 225° |
| 2026-05-04 14:44 | 41.66273 | 6.54359 | 40989 ft | 425 kts | 225° |
| 2026-05-04 14:45 | 41.61930 | 6.49105 | 40995 ft | 423 kts | 225° |
| 2026-05-04 14:45 | 41.57553 | 6.43818 | 40994 ft | 425 kts | 225° |
| 2026-05-04 14:46 | 41.53172 | 6.38538 | 40978 ft | 423 kts | 225° |
| 2026-05-04 14:46 | 41.48818 | 6.33302 | 40977 ft | 420 kts | 225° |
| 2026-05-04 14:47 | 41.44516 | 6.28137 | 40976 ft | 418 kts | 225° |
| 2026-05-04 14:47 | 41.40201 | 6.22965 | 40974 ft | 417 kts | 225° |
| 2026-05-04 14:48 | 41.35899 | 6.17818 | 40969 ft | 415 kts | 225° |
| 2026-05-04 14:48 | 41.31595 | 6.12677 | 40988 ft | 417 kts | 225° |
| 2026-05-04 14:49 | 41.27295 | 6.07551 | 40977 ft | 418 kts | 224° |
| 2026-05-04 14:49 | 41.22958 | 6.02392 | 40972 ft | 419 kts | 224° |
| 2026-05-04 14:50 | 41.18610 | 5.97230 | 40948 ft | 419 kts | 224° |
| 2026-05-04 14:50 | 41.14260 | 5.92074 | 40998 ft | 421 kts | 224° |
| 2026-05-04 14:51 | 41.09911 | 5.86927 | 40957 ft | 422 kts | 224° |
| 2026-05-04 14:51 | 41.05534 | 5.81758 | 40960 ft | 421 kts | 224° |
| 2026-05-04 14:52 | 41.01168 | 5.76610 | 40957 ft | 420 kts | 224° |
| 2026-05-04 14:52 | 40.96810 | 5.71467 | 40950 ft | 418 kts | 226° |
| 2026-05-04 14:53 | 40.92946 | 5.65818 | 40812 ft | 418 kts | 234° |
| 2026-05-04 14:53 | 40.91244 | 5.62683 | 40158 ft | 420 kts | 236° |
| 2026-05-04 14:53 | 40.89574 | 5.59538 | 39640 ft | 415 kts | 236° |
| 2026-05-04 14:54 | 40.87929 | 5.56434 | 39131 ft | 410 kts | 236° |
| 2026-05-04 14:54 | 40.86302 | 5.53373 | 38654 ft | 405 kts | 235° |
| 2026-05-04 14:54 | 40.84685 | 5.50343 | 38005 ft | 401 kts | 235° |
| 2026-05-04 14:54 | 40.83088 | 5.47361 | 37476 ft | 395 kts | 235° |
| 2026-05-04 14:55 | 40.81508 | 5.44421 | 36953 ft | 390 kts | 235° |
| 2026-05-04 14:55 | 40.79949 | 5.41524 | 36472 ft | 385 kts | 235° |
| 2026-05-04 14:55 | 40.78408 | 5.38665 | 35983 ft | 380 kts | 235° |
| 2026-05-04 14:55 | 40.76904 | 5.35876 | 35503 ft | 376 kts | 235° |
| 2026-05-04 14:56 | 40.75396 | 5.33084 | 35051 ft | 372 kts | 234° |
| 2026-05-04 14:56 | 40.73901 | 5.30318 | 34561 ft | 369 kts | 234° |
| 2026-05-04 14:56 | 40.72419 | 5.27578 | 34069 ft | 365 kts | 234° |
| 2026-05-04 14:56 | 40.70949 | 5.24863 | 33567 ft | 362 kts | 234° |
| 2026-05-04 14:57 | 40.69489 | 5.22170 | 33036 ft | 359 kts | 234° |
| 2026-05-04 14:57 | 40.68046 | 5.19511 | 32552 ft | 355 kts | 234° |
| 2026-05-04 14:57 | 40.66621 | 5.16886 | 32091 ft | 351 kts | 234° |
| 2026-05-04 14:57 | 40.65209 | 5.14287 | 31619 ft | 347 kts | 234° |
| 2026-05-04 14:58 | 40.63830 | 5.11750 | 31164 ft | 344 kts | 234° |
| 2026-05-04 14:58 | 40.62443 | 5.09202 | 30711 ft | 340 kts | 234° |
| 2026-05-04 14:58 | 40.61072 | 5.06684 | 30260 ft | 337 kts | 234° |
| 2026-05-04 14:58 | 40.59710 | 5.04186 | 29763 ft | 334 kts | 234° |
| 2026-05-04 14:59 | 40.58362 | 5.01715 | 29259 ft | 331 kts | 234° |
| 2026-05-04 14:59 | 40.57022 | 4.99262 | 28789 ft | 328 kts | 234° |
| 2026-05-04 14:59 | 40.54382 | 4.94431 | 27905 ft | 323 kts | 234° |
| 2026-05-04 15:00 | 40.53072 | 4.92038 | 27444 ft | 321 kts | 234° |
| 2026-05-04 15:00 | 40.51792 | 4.89697 | 27014 ft | 319 kts | 234° |
| 2026-05-04 15:00 | 40.50496 | 4.87333 | 26590 ft | 318 kts | 235° |
| 2026-05-04 15:01 | 40.47921 | 4.82638 | 25752 ft | 316 kts | 235° |
| 2026-05-04 15:01 | 40.46637 | 4.80299 | 25343 ft | 316 kts | 235° |
| 2026-05-04 15:01 | 40.45351 | 4.77961 | 24936 ft | 316 kts | 235° |
| 2026-05-04 15:01 | 40.44065 | 4.75625 | 24536 ft | 316 kts | 236° |
| 2026-05-04 15:02 | 40.42768 | 4.73284 | 24119 ft | 317 kts | 236° |
| 2026-05-04 15:02 | 40.41466 | 4.70946 | 23715 ft | 318 kts | 236° |
| 2026-05-04 15:02 | 40.40178 | 4.68636 | 23275 ft | 318 kts | 236° |
| 2026-05-04 15:02 | 40.38872 | 4.66294 | 22863 ft | 317 kts | 236° |
| 2026-05-04 15:03 | 40.37585 | 4.63972 | 22567 ft | 312 kts | 236° |
| 2026-05-04 15:03 | 40.36327 | 4.61695 | 22287 ft | 305 kts | 236° |
| 2026-05-04 15:03 | 40.35092 | 4.59459 | 22009 ft | 301 kts | 236° |
| 2026-05-04 15:03 | 40.33869 | 4.57247 | 21766 ft | 298 kts | 235° |
| 2026-05-04 15:04 | 40.32655 | 4.55050 | 21507 ft | 297 kts | 235° |
| 2026-05-04 15:04 | 40.31436 | 4.52847 | 21231 ft | 301 kts | 235° |
| 2026-05-04 15:04 | 40.30216 | 4.50643 | 20966 ft | 304 kts | 235° |
| 2026-05-04 15:04 | 40.28970 | 4.48395 | 20708 ft | 305 kts | 235° |
| 2026-05-04 15:05 | 40.27725 | 4.46150 | 20440 ft | 304 kts | 235° |
| 2026-05-04 15:05 | 40.26482 | 4.43912 | 20173 ft | 304 kts | 235° |
| 2026-05-04 15:05 | 40.25240 | 4.41675 | 19898 ft | 304 kts | 235° |
| 2026-05-04 15:05 | 40.23997 | 4.39440 | 19628 ft | 303 kts | 235° |
| 2026-05-04 15:06 | 40.22755 | 4.37208 | 19358 ft | 303 kts | 235° |
| 2026-05-04 15:06 | 40.21513 | 4.34976 | 19096 ft | 303 kts | 235° |
| 2026-05-04 15:06 | 40.20272 | 4.32749 | 18833 ft | 303 kts | 235° |
| 2026-05-04 15:07 | 40.17798 | 4.28314 | 18299 ft | 304 kts | 235° |
| 2026-05-04 15:07 | 40.16552 | 4.26082 | 17994 ft | 304 kts | 235° |
| 2026-05-04 15:07 | 40.15307 | 4.23853 | 17706 ft | 303 kts | 235° |
| 2026-05-04 15:07 | 40.14065 | 4.21632 | 17428 ft | 302 kts | 234° |
| 2026-05-04 15:08 | 40.12828 | 4.19421 | 17155 ft | 301 kts | 234° |
| 2026-05-04 15:08 | 40.11594 | 4.17217 | 16897 ft | 300 kts | 234° |
| 2026-05-04 15:08 | 40.10365 | 4.15023 | 16634 ft | 299 kts | 234° |
| 2026-05-04 15:08 | 40.09137 | 4.12832 | 16363 ft | 299 kts | 234° |
| 2026-05-04 15:09 | 40.07926 | 4.10673 | 16089 ft | 298 kts | 234° |
| 2026-05-04 15:09 | 40.06704 | 4.08497 | 15847 ft | 297 kts | 234° |
| 2026-05-04 15:09 | 40.05485 | 4.06329 | 15594 ft | 296 kts | 234° |
| 2026-05-04 15:10 | 40.03064 | 4.02023 | 15068 ft | 293 kts | 234° |
| 2026-05-04 15:10 | 40.01863 | 3.99889 | 14814 ft | 291 kts | 234° |
| 2026-05-04 15:10 | 39.99482 | 3.95664 | 14305 ft | 287 kts | 233° |
| 2026-05-04 15:11 | 39.98301 | 3.93570 | 14036 ft | 286 kts | 233° |
| 2026-05-04 15:11 | 39.97125 | 3.91487 | 13778 ft | 284 kts | 233° |
| 2026-05-04 15:11 | 39.95972 | 3.89445 | 13508 ft | 283 kts | 233° |
| 2026-05-04 15:11 | 39.94808 | 3.87386 | 13252 ft | 281 kts | 233° |
| 2026-05-04 15:12 | 39.93653 | 3.85341 | 12987 ft | 280 kts | 233° |
| 2026-05-04 15:12 | 39.92502 | 3.83307 | 12746 ft | 278 kts | 233° |
| 2026-05-04 15:12 | 39.91422 | 3.81250 | 12446 ft | 273 kts | 243° |
| 2026-05-04 15:12 | 39.90727 | 3.78935 | 12159 ft | 275 kts | 249° |
| 2026-05-04 15:13 | 39.90097 | 3.76577 | 11889 ft | 277 kts | 249° |
| 2026-05-04 15:13 | 39.89455 | 3.74208 | 11621 ft | 278 kts | 249° |
| 2026-05-04 15:13 | 39.88807 | 3.71841 | 11401 ft | 278 kts | 249° |
| 2026-05-04 15:13 | 39.88152 | 3.69473 | 11154 ft | 278 kts | 249° |
| 2026-05-04 15:14 | 39.87501 | 3.67135 | 10905 ft | 277 kts | 248° |
| 2026-05-04 15:14 | 39.86844 | 3.64797 | 10661 ft | 273 kts | 248° |
| 2026-05-04 15:14 | 39.86195 | 3.62501 | 10421 ft | 269 kts | 248° |
| 2026-05-04 15:14 | 39.85551 | 3.60222 | 10183 ft | 267 kts | 248° |
| 2026-05-04 15:15 | 39.84916 | 3.57973 | 9939 ft | 262 kts | 248° |
| 2026-05-04 15:15 | 39.84293 | 3.55764 | 9696 ft | 258 kts | 248° |
| 2026-05-04 15:15 | 39.83679 | 3.53579 | 9450 ft | 258 kts | 248° |
| 2026-05-04 15:16 | 39.82419 | 3.49108 | 9009 ft | 267 kts | 248° |
| 2026-05-04 15:16 | 39.81777 | 3.46839 | 8768 ft | 268 kts | 248° |
| 2026-05-04 15:16 | 39.80491 | 3.42311 | 8333 ft | 269 kts | 248° |
| 2026-05-04 15:17 | 39.79841 | 3.40031 | 8107 ft | 268 kts | 248° |
| 2026-05-04 15:17 | 39.78570 | 3.35556 | 7613 ft | 260 kts | 248° |
| 2026-05-04 15:17 | 39.77938 | 3.33358 | 7401 ft | 260 kts | 248° |
| 2026-05-04 15:18 | 39.77304 | 3.31161 | 7129 ft | 258 kts | 248° |
| 2026-05-04 15:18 | 39.76681 | 3.28996 | 6892 ft | 254 kts | 248° |
| 2026-05-04 15:18 | 39.76065 | 3.26854 | 6644 ft | 253 kts | 248° |
| 2026-05-04 15:19 | 39.74828 | 3.22552 | 6159 ft | 254 kts | 248° |
| 2026-05-04 15:19 | 39.74222 | 3.20428 | 5898 ft | 254 kts | 248° |
| 2026-05-04 15:19 | 39.72998 | 3.16145 | 5386 ft | 251 kts | 248° |
| 2026-05-04 15:20 | 39.72398 | 3.14039 | 5144 ft | 247 kts | 248° |
| 2026-05-04 15:20 | 39.71815 | 3.11989 | 5032 ft | 237 kts | 248° |
| 2026-05-04 15:20 | 39.71252 | 3.10027 | 4983 ft | 226 kts | 247° |
| 2026-05-04 15:20 | 39.70594 | 3.08239 | 4957 ft | 212 kts | 240° |
| 2026-05-04 15:21 | 39.69866 | 3.06619 | 4954 ft | 204 kts | 238° |
| 2026-05-04 15:21 | 39.69163 | 3.05113 | 4972 ft | 190 kts | 238° |
| 2026-05-04 15:21 | 39.67821 | 3.02259 | 4563 ft | 183 kts | 237° |
| 2026-05-04 15:22 | 39.67166 | 3.00864 | 4310 ft | 179 kts | 237° |
| 2026-05-04 15:22 | 39.66525 | 2.99503 | 4081 ft | 175 kts | 237° |
| 2026-05-04 15:22 | 39.65272 | 2.96836 | 3610 ft | 172 kts | 237° |
| 2026-05-04 15:23 | 39.64654 | 2.95523 | 3395 ft | 169 kts | 238° |
| 2026-05-04 15:23 | 39.64037 | 2.94210 | 3195 ft | 171 kts | 238° |
| 2026-05-04 15:23 | 39.63421 | 2.92897 | 2972 ft | 170 kts | 237° |
| 2026-05-04 15:23 | 39.62815 | 2.91614 | 2743 ft | 168 kts | 239° |
| 2026-05-04 15:24 | 39.61635 | 2.89102 | 2335 ft | 153 kts | 237° |
| 2026-05-04 15:24 | 39.60649 | 2.87006 | 1972 ft | 122 kts | 238° |
| 2026-05-04 15:25 | 39.60207 | 2.86068 | 1797 ft | 123 kts | 237° |
| 2026-05-04 15:25 | 39.59752 | 2.85104 | 1648 ft | 128 kts | 238° |
| 2026-05-04 15:25 | 39.59290 | 2.84121 | 1450 ft | 127 kts | 238° |
| 2026-05-04 15:26 | 39.58370 | 2.82170 | 1110 ft | 125 kts | 236° |
| 2026-05-04 15:26 | 39.57936 | 2.81251 | 950 ft | 120 kts | 237° |
| 2026-05-04 15:26 | 39.57037 | 2.79332 | 660 ft | 127 kts | 237° |
| 2026-05-04 15:27 | 39.56587 | 2.78377 | 485 ft | 120 kts | 237° |
| 2026-05-04 15:27 | 39.55737 | 2.76579 | 141 ft | 112 kts | 236° |
| 2026-05-04 15:28 | 39.55035 | 2.75096 | 43 ft | 58 kts | 239° |
| 2026-05-04 15:28 | 39.54905 | 2.74820 | 43 ft | 22 kts | 238° |
| 2026-05-04 15:28 | 39.54816 | 2.74511 | 43 ft | 17 kts | 258° |
| 2026-05-04 15:29 | 39.54805 | 2.74363 | 43 ft | 13 kts | 268° |
| 2026-05-04 15:30 | 39.54803 | 2.74209 | 43 ft | 10 kts | 274° |
| 2026-05-04 15:30 | 39.54931 | 2.74041 | 43 ft | 5 kts | 314° |
| 2026-05-04 15:31 | 39.54931 | 2.73950 | 43 ft | 5 kts | 281° |
| 2026-05-04 15:31 | 39.54956 | 2.73915 | 43 ft | 6 kts | 326° |
| 2026-05-04 15:32 | 39.55042 | 2.73818 | 43 ft | 6 kts | 269° |
| 2026-05-04 15:32 | 39.55012 | 2.73749 | 43 ft | 2 kts | 239° |
| 2026-05-04 15:33 | 39.55007 | 2.73738 | 43 ft | 0 kts | 239° |